sensor_id;sensor_type;location;lat;lon;timestamp;P1;durP1;ratioP1;P2;durP2;ratioP2
60999;SDS011;46879;45.658;11.814;2022-08-21T00:03:56;2.53;;;1.20;;
60999;SDS011;46879;45.658;11.814;2022-08-21T00:08:57;5.35;;;1.65;;
60999;SDS011;46879;45.658;11.814;2022-08-21T00:13:57;4.40;;;1.25;;
60999;SDS011;46879;45.658;11.814;2022-08-21T00:18:58;2.58;;;1.50;;
60999;SDS011;46879;45.658;11.814;2022-08-21T00:23:59;2.03;;;1.40;;
60999;SDS011;46879;45.658;11.814;2022-08-21T00:29:00;1.45;;;1.35;;
60999;SDS011;46879;45.658;11.814;2022-08-21T00:34:01;2.67;;;1.33;;
60999;SDS011;46879;45.658;11.814;2022-08-21T00:39:03;3.63;;;1.50;;
60999;SDS011;46879;45.658;11.814;2022-08-21T00:44:09;1.63;;;1.45;;
60999;SDS011;46879;45.658;11.814;2022-08-21T00:49:13;3.10;;;1.45;;
60999;SDS011;46879;45.658;11.814;2022-08-21T00:54:13;2.40;;;1.45;;
60999;SDS011;46879;45.658;11.814;2022-08-21T00:59:16;11.38;;;1.60;;
60999;SDS011;46879;45.658;11.814;2022-08-21T01:04:19;2.85;;;1.45;;
60999;SDS011;46879;45.658;11.814;2022-08-21T01:09:22;3.30;;;1.40;;
60999;SDS011;46879;45.658;11.814;2022-08-21T01:14:22;1.58;;;1.35;;
60999;SDS011;46879;45.658;11.814;2022-08-21T01:19:23;3.03;;;1.58;;
60999;SDS011;46879;45.658;11.814;2022-08-21T01:24:24;2.05;;;1.33;;
60999;SDS011;46879;45.658;11.814;2022-08-21T01:34:50;1.15;;;1.05;;
60999;SDS011;46879;45.658;11.814;2022-08-21T01:39:52;2.35;;;1.40;;
60999;SDS011;46879;45.658;11.814;2022-08-21T01:44:53;1.90;;;1.52;;
60999;SDS011;46879;45.658;11.814;2022-08-21T01:49:53;1.70;;;1.15;;
60999;SDS011;46879;45.658;11.814;2022-08-21T01:54:54;1.75;;;1.17;;
60999;SDS011;46879;45.658;11.814;2022-08-21T01:59:55;1.25;;;1.13;;
60999;SDS011;46879;45.658;11.814;2022-08-21T02:04:56;1.20;;;1.10;;
60999;SDS011;46879;45.658;11.814;2022-08-21T02:09:56;1.60;;;1.25;;
60999;SDS011;46879;45.658;11.814;2022-08-21T02:14:57;2.28;;;1.15;;
60999;SDS011;46879;45.658;11.814;2022-08-21T02:19:58;3.38;;;1.13;;
60999;SDS011;46879;45.658;11.814;2022-08-21T02:24:58;0.88;;;0.80;;
60999;SDS011;46879;45.658;11.814;2022-08-21T02:29:59;1.00;;;1.00;;
60999;SDS011;46879;45.658;11.814;2022-08-21T02:35:00;1.58;;;1.30;;
60999;SDS011;46879;45.658;11.814;2022-08-21T02:40:00;1.05;;;0.90;;
60999;SDS011;46879;45.658;11.814;2022-08-21T02:45:01;1.60;;;1.33;;
60999;SDS011;46879;45.658;11.814;2022-08-21T02:50:03;1.55;;;1.10;;
60999;SDS011;46879;45.658;11.814;2022-08-21T02:55:06;1.38;;;1.00;;
60999;SDS011;46879;45.658;11.814;2022-08-21T03:00:07;2.05;;;1.23;;
60999;SDS011;46879;45.658;11.814;2022-08-21T03:05:11;1.48;;;1.20;;
60999;SDS011;46879;45.658;11.814;2022-08-21T03:10:13;1.20;;;1.00;;
60999;SDS011;46879;45.658;11.814;2022-08-21T03:15:16;1.17;;;0.95;;
60999;SDS011;46879;45.658;11.814;2022-08-21T03:20:20;1.02;;;0.98;;
60999;SDS011;46879;45.658;11.814;2022-08-21T03:25:24;1.30;;;1.20;;
60999;SDS011;46879;45.658;11.814;2022-08-21T03:30:26;1.23;;;1.13;;
60999;SDS011;46879;45.658;11.814;2022-08-21T03:35:27;1.25;;;1.00;;
60999;SDS011;46879;45.658;11.814;2022-08-21T03:40:28;1.98;;;1.10;;
60999;SDS011;46879;45.658;11.814;2022-08-21T03:45:29;2.67;;;1.00;;
60999;SDS011;46879;45.658;11.814;2022-08-21T03:50:31;2.67;;;1.20;;
60999;SDS011;46879;45.658;11.814;2022-08-21T03:55:34;4.22;;;1.00;;
60999;SDS011;46879;45.658;11.814;2022-08-21T04:00:35;1.25;;;0.98;;
60999;SDS011;46879;45.658;11.814;2022-08-21T04:05:35;1.38;;;1.00;;
60999;SDS011;46879;45.658;11.814;2022-08-21T04:10:38;2.55;;;1.27;;
60999;SDS011;46879;45.658;11.814;2022-08-21T04:15:40;1.75;;;1.00;;
60999;SDS011;46879;45.658;11.814;2022-08-21T04:20:42;1.05;;;0.93;;
60999;SDS011;46879;45.658;11.814;2022-08-21T04:25:44;1.13;;;1.02;;
60999;SDS011;46879;45.658;11.814;2022-08-21T04:30:45;3.25;;;1.40;;
60999;SDS011;46879;45.658;11.814;2022-08-21T04:35:46;1.30;;;1.00;;
60999;SDS011;46879;45.658;11.814;2022-08-21T04:40:49;1.17;;;1.00;;
60999;SDS011;46879;45.658;11.814;2022-08-21T04:45:50;1.48;;;1.13;;
60999;SDS011;46879;45.658;11.814;2022-08-21T04:56:13;1.00;;;0.90;;
60999;SDS011;46879;45.658;11.814;2022-08-21T05:01:21;0.98;;;0.95;;
60999;SDS011;46879;45.658;11.814;2022-08-21T05:06:24;1.80;;;1.02;;
60999;SDS011;46879;45.658;11.814;2022-08-21T05:11:28;1.30;;;1.20;;
60999;SDS011;46879;45.658;11.814;2022-08-21T05:16:30;2.03;;;1.08;;
60999;SDS011;46879;45.658;11.814;2022-08-21T05:21:30;0.80;;;0.80;;
60999;SDS011;46879;45.658;11.814;2022-08-21T05:26:31;1.75;;;1.17;;
60999;SDS011;46879;45.658;11.814;2022-08-21T05:31:32;0.80;;;0.80;;
60999;SDS011;46879;45.658;11.814;2022-08-21T05:36:33;2.03;;;0.90;;
60999;SDS011;46879;45.658;11.814;2022-08-21T05:41:34;2.55;;;0.90;;
60999;SDS011;46879;45.658;11.814;2022-08-21T05:46:35;1.10;;;1.00;;
60999;SDS011;46879;45.658;11.814;2022-08-21T05:51:35;3.63;;;1.10;;
60999;SDS011;46879;45.658;11.814;2022-08-21T05:56:36;0.77;;;0.77;;
60999;SDS011;46879;45.658;11.814;2022-08-21T06:01:37;1.77;;;1.00;;
60999;SDS011;46879;45.658;11.814;2022-08-21T06:06:38;1.00;;;0.68;;
60999;SDS011;46879;45.658;11.814;2022-08-21T06:11:38;1.00;;;0.80;;
60999;SDS011;46879;45.658;11.814;2022-08-21T06:16:39;0.80;;;0.80;;
60999;SDS011;46879;45.658;11.814;2022-08-21T06:21:40;0.77;;;0.77;;
60999;SDS011;46879;45.658;11.814;2022-08-21T06:26:40;2.35;;;0.80;;
60999;SDS011;46879;45.658;11.814;2022-08-21T06:31:41;1.92;;;0.80;;
60999;SDS011;46879;45.658;11.814;2022-08-21T06:36:42;1.05;;;0.95;;
60999;SDS011;46879;45.658;11.814;2022-08-21T06:41:43;2.20;;;1.00;;
60999;SDS011;46879;45.658;11.814;2022-08-21T06:46:46;0.80;;;0.80;;
60999;SDS011;46879;45.658;11.814;2022-08-21T06:51:46;1.60;;;1.00;;
60999;SDS011;46879;45.658;11.814;2022-08-21T06:56:47;4.40;;;1.05;;
60999;SDS011;46879;45.658;11.814;2022-08-21T07:01:47;1.90;;;0.90;;
60999;SDS011;46879;45.658;11.814;2022-08-21T07:06:49;0.88;;;0.80;;
60999;SDS011;46879;45.658;11.814;2022-08-21T07:11:50;1.05;;;0.85;;
60999;SDS011;46879;45.658;11.814;2022-08-21T07:16:53;1.75;;;1.00;;
60999;SDS011;46879;45.658;11.814;2022-08-21T07:21:55;1.42;;;0.80;;
60999;SDS011;46879;45.658;11.814;2022-08-21T07:27:01;1.48;;;0.80;;
60999;SDS011;46879;45.658;11.814;2022-08-21T07:32:01;1.02;;;0.90;;
60999;SDS011;46879;45.658;11.814;2022-08-21T07:37:02;0.73;;;0.73;;
60999;SDS011;46879;45.658;11.814;2022-08-21T07:42:03;1.63;;;0.75;;
60999;SDS011;46879;45.658;11.814;2022-08-21T07:47:04;3.95;;;0.90;;
60999;SDS011;46879;45.658;11.814;2022-08-21T07:52:05;4.53;;;0.90;;
60999;SDS011;46879;45.658;11.814;2022-08-21T07:57:06;0.70;;;0.70;;
60999;SDS011;46879;45.658;11.814;2022-08-21T08:02:06;0.90;;;0.90;;
60999;SDS011;46879;45.658;11.814;2022-08-21T08:07:07;1.67;;;0.95;;
60999;SDS011;46879;45.658;11.814;2022-08-21T08:12:08;3.60;;;1.05;;
60999;SDS011;46879;45.658;11.814;2022-08-21T08:17:08;2.72;;;0.68;;
60999;SDS011;46879;45.658;11.814;2022-08-21T08:22:13;0.95;;;0.80;;
60999;SDS011;46879;45.658;11.814;2022-08-21T08:27:22;3.03;;;1.20;;
60999;SDS011;46879;45.658;11.814;2022-08-21T08:32:22;6.30;;;0.95;;
60999;SDS011;46879;45.658;11.814;2022-08-21T08:37:23;1.08;;;0.98;;
60999;SDS011;46879;45.658;11.814;2022-08-21T08:42:28;4.82;;;1.45;;
60999;SDS011;46879;45.658;11.814;2022-08-21T08:47:36;1.35;;;1.13;;
60999;SDS011;46879;45.658;11.814;2022-08-21T08:52:48;1.10;;;1.00;;
60999;SDS011;46879;45.658;11.814;2022-08-21T08:57:54;1.42;;;0.90;;
60999;SDS011;46879;45.658;11.814;2022-08-21T09:02:57;1.20;;;1.00;;
60999;SDS011;46879;45.658;11.814;2022-08-21T09:08:08;1.65;;;0.88;;
60999;SDS011;46879;45.658;11.814;2022-08-21T09:13:17;2.42;;;1.20;;
60999;SDS011;46879;45.658;11.814;2022-08-21T09:24:01;1.50;;;1.00;;
60999;SDS011;46879;45.658;11.814;2022-08-21T09:29:20;1.10;;;1.00;;
60999;SDS011;46879;45.658;11.814;2022-08-21T09:34:29;3.65;;;1.00;;
60999;SDS011;46879;45.658;11.814;2022-08-21T09:39:32;1.52;;;0.98;;
60999;SDS011;46879;45.658;11.814;2022-08-21T09:44:40;6.03;;;1.05;;
60999;SDS011;46879;45.658;11.814;2022-08-21T09:49:43;1.75;;;1.10;;
60999;SDS011;46879;45.658;11.814;2022-08-21T09:54:45;2.45;;;1.02;;
60999;SDS011;46879;45.658;11.814;2022-08-21T09:59:46;2.50;;;0.88;;
60999;SDS011;46879;45.658;11.814;2022-08-21T10:04:51;1.83;;;0.95;;
60999;SDS011;46879;45.658;11.814;2022-08-21T10:10:09;1.17;;;0.85;;
60999;SDS011;46879;45.658;11.814;2022-08-21T10:15:31;2.05;;;1.00;;
60999;SDS011;46879;45.658;11.814;2022-08-21T10:47:57;5.60;;;1.13;;
60999;SDS011;46879;45.658;11.814;2022-08-21T10:53:15;5.47;;;1.15;;
60999;SDS011;46879;45.658;11.814;2022-08-21T10:58:32;2.63;;;0.93;;
60999;SDS011;46879;45.658;11.814;2022-08-21T11:04:19;9.80;;;1.33;;
60999;SDS011;46879;45.658;11.814;2022-08-21T11:09:51;5.50;;;1.37;;
60999;SDS011;46879;45.658;11.814;2022-08-21T11:14:58;1.90;;;1.02;;
60999;SDS011;46879;45.658;11.814;2022-08-21T11:25:41;2.67;;;1.00;;
60999;SDS011;46879;45.658;11.814;2022-08-21T11:30:53;2.95;;;1.10;;
60999;SDS011;46879;45.658;11.814;2022-08-21T11:47:37;1.55;;;0.90;;
60999;SDS011;46879;45.658;11.814;2022-08-21T11:58:27;1.88;;;0.90;;
60999;SDS011;46879;45.658;11.814;2022-08-21T12:03:36;0.88;;;0.80;;
60999;SDS011;46879;45.658;11.814;2022-08-21T12:08:42;0.68;;;0.65;;
60999;SDS011;46879;45.658;11.814;2022-08-21T12:13:57;0.98;;;0.85;;
60999;SDS011;46879;45.658;11.814;2022-08-21T12:24:31;1.00;;;0.80;;
60999;SDS011;46879;45.658;11.814;2022-08-21T12:29:38;2.45;;;0.93;;
60999;SDS011;46879;45.658;11.814;2022-08-21T12:39:52;2.85;;;1.17;;
60999;SDS011;46879;45.658;11.814;2022-08-21T12:44:55;2.33;;;0.82;;
60999;SDS011;46879;45.658;11.814;2022-08-21T12:50:08;1.00;;;0.80;;
60999;SDS011;46879;45.658;11.814;2022-08-21T12:55:25;0.70;;;0.70;;
60999;SDS011;46879;45.658;11.814;2022-08-21T13:00:29;0.80;;;0.70;;
60999;SDS011;46879;45.658;11.814;2022-08-21T13:05:32;0.73;;;0.73;;
60999;SDS011;46879;45.658;11.814;2022-08-21T13:10:35;0.50;;;0.50;;
60999;SDS011;46879;45.658;11.814;2022-08-21T13:15:38;0.88;;;0.80;;
60999;SDS011;46879;45.658;11.814;2022-08-21T13:20:41;1.45;;;0.80;;
60999;SDS011;46879;45.658;11.814;2022-08-21T13:25:42;1.00;;;0.85;;
60999;SDS011;46879;45.658;11.814;2022-08-21T13:30:44;3.42;;;0.90;;
60999;SDS011;46879;45.658;11.814;2022-08-21T13:40:54;1.00;;;0.90;;
60999;SDS011;46879;45.658;11.814;2022-08-21T13:45:58;11.80;;;1.20;;
60999;SDS011;46879;45.658;11.814;2022-08-21T13:51:00;2.50;;;1.05;;
60999;SDS011;46879;45.658;11.814;2022-08-21T13:56:03;1.55;;;0.90;;
60999;SDS011;46879;45.658;11.814;2022-08-21T14:01:04;1.92;;;0.80;;
60999;SDS011;46879;45.658;11.814;2022-08-21T14:06:15;0.88;;;0.75;;
60999;SDS011;46879;45.658;11.814;2022-08-21T14:11:19;0.90;;;0.88;;
60999;SDS011;46879;45.658;11.814;2022-08-21T14:16:21;1.73;;;1.10;;
60999;SDS011;46879;45.658;11.814;2022-08-21T14:21:43;1.10;;;0.80;;
60999;SDS011;46879;45.658;11.814;2022-08-21T14:26:48;2.88;;;0.75;;
60999;SDS011;46879;45.658;11.814;2022-08-21T14:31:57;0.77;;;0.52;;
60999;SDS011;46879;45.658;11.814;2022-08-21T14:36:59;2.05;;;0.80;;
60999;SDS011;46879;45.658;11.814;2022-08-21T14:42:00;1.23;;;0.70;;
60999;SDS011;46879;45.658;11.814;2022-08-21T14:47:01;2.70;;;0.75;;
60999;SDS011;46879;45.658;11.814;2022-08-21T14:52:02;0.68;;;0.60;;
60999;SDS011;46879;45.658;11.814;2022-08-21T14:57:05;0.85;;;0.80;;
60999;SDS011;46879;45.658;11.814;2022-08-21T15:02:08;0.60;;;0.60;;
60999;SDS011;46879;45.658;11.814;2022-08-21T15:07:09;0.98;;;0.68;;
60999;SDS011;46879;45.658;11.814;2022-08-21T15:12:10;2.78;;;0.47;;
60999;SDS011;46879;45.658;11.814;2022-08-21T15:17:12;2.05;;;0.60;;
60999;SDS011;46879;45.658;11.814;2022-08-21T15:22:13;0.60;;;0.60;;
60999;SDS011;46879;45.658;11.814;2022-08-21T15:27:14;0.70;;;0.70;;
60999;SDS011;46879;45.658;11.814;2022-08-21T15:32:20;1.30;;;0.60;;
60999;SDS011;46879;45.658;11.814;2022-08-21T15:37:25;1.02;;;0.70;;
60999;SDS011;46879;45.658;11.814;2022-08-21T15:42:26;1.73;;;0.70;;
60999;SDS011;46879;45.658;11.814;2022-08-21T15:47:29;2.67;;;0.57;;
60999;SDS011;46879;45.658;11.814;2022-08-21T15:57:36;1.75;;;0.70;;
60999;SDS011;46879;45.658;11.814;2022-08-21T16:02:43;0.88;;;0.63;;
60999;SDS011;46879;45.658;11.814;2022-08-21T16:07:47;0.50;;;0.50;;
60999;SDS011;46879;45.658;11.814;2022-08-21T16:12:56;0.50;;;0.50;;
60999;SDS011;46879;45.658;11.814;2022-08-21T16:18:01;0.68;;;0.60;;
60999;SDS011;46879;45.658;11.814;2022-08-21T16:23:02;0.63;;;0.52;;
60999;SDS011;46879;45.658;11.814;2022-08-21T16:28:04;0.60;;;0.60;;
60999;SDS011;46879;45.658;11.814;2022-08-21T16:33:08;0.95;;;0.60;;
60999;SDS011;46879;45.658;11.814;2022-08-21T16:38:24;0.82;;;0.60;;
60999;SDS011;46879;45.658;11.814;2022-08-21T16:43:27;0.50;;;0.50;;
60999;SDS011;46879;45.658;11.814;2022-08-21T16:48:28;1.27;;;0.60;;
60999;SDS011;46879;45.658;11.814;2022-08-21T16:53:29;0.60;;;0.60;;
60999;SDS011;46879;45.658;11.814;2022-08-21T16:58:34;0.60;;;0.60;;
60999;SDS011;46879;45.658;11.814;2022-08-21T17:03:39;3.03;;;0.75;;
60999;SDS011;46879;45.658;11.814;2022-08-21T17:08:45;1.27;;;0.63;;
60999;SDS011;46879;45.658;11.814;2022-08-21T17:13:46;0.45;;;0.45;;
60999;SDS011;46879;45.658;11.814;2022-08-21T17:18:47;0.70;;;0.70;;
60999;SDS011;46879;45.658;11.814;2022-08-21T17:23:48;1.65;;;0.73;;
60999;SDS011;46879;45.658;11.814;2022-08-21T17:28:48;0.90;;;0.60;;
60999;SDS011;46879;45.658;11.814;2022-08-21T17:33:50;1.10;;;0.80;;
60999;SDS011;46879;45.658;11.814;2022-08-21T17:38:53;0.55;;;0.52;;
60999;SDS011;46879;45.658;11.814;2022-08-21T17:43:54;0.65;;;0.65;;
60999;SDS011;46879;45.658;11.814;2022-08-21T17:48:55;1.85;;;0.77;;
60999;SDS011;46879;45.658;11.814;2022-08-21T17:53:57;1.67;;;0.82;;
60999;SDS011;46879;45.658;11.814;2022-08-21T17:58:57;0.60;;;0.60;;
60999;SDS011;46879;45.658;11.814;2022-08-21T18:03:58;2.60;;;0.65;;
60999;SDS011;46879;45.658;11.814;2022-08-21T18:08:59;0.80;;;0.80;;
60999;SDS011;46879;45.658;11.814;2022-08-21T18:14:01;1.13;;;0.60;;
60999;SDS011;46879;45.658;11.814;2022-08-21T18:19:05;0.65;;;0.65;;
60999;SDS011;46879;45.658;11.814;2022-08-21T18:24:10;0.73;;;0.50;;
60999;SDS011;46879;45.658;11.814;2022-08-21T18:29:12;0.70;;;0.70;;
60999;SDS011;46879;45.658;11.814;2022-08-21T18:39:33;3.30;;;1.17;;
60999;SDS011;46879;45.658;11.814;2022-08-21T18:44:34;2.08;;;0.73;;
60999;SDS011;46879;45.658;11.814;2022-08-21T18:49:36;0.70;;;0.70;;
60999;SDS011;46879;45.658;11.814;2022-08-21T18:54:38;1.95;;;0.98;;
60999;SDS011;46879;45.658;11.814;2022-08-21T18:59:44;1.75;;;0.88;;
60999;SDS011;46879;45.658;11.814;2022-08-21T19:04:45;1.70;;;0.80;;
60999;SDS011;46879;45.658;11.814;2022-08-21T19:09:46;6.90;;;1.23;;
60999;SDS011;46879;45.658;11.814;2022-08-21T19:14:46;2.17;;;1.00;;
60999;SDS011;46879;45.658;11.814;2022-08-21T19:19:47;1.85;;;1.00;;
60999;SDS011;46879;45.658;11.814;2022-08-21T19:24:48;5.43;;;1.40;;
60999;SDS011;46879;45.658;11.814;2022-08-21T19:29:50;5.05;;;0.90;;
60999;SDS011;46879;45.658;11.814;2022-08-21T19:34:55;4.97;;;1.15;;
60999;SDS011;46879;45.658;11.814;2022-08-21T19:39:56;8.05;;;1.23;;
60999;SDS011;46879;45.658;11.814;2022-08-21T19:44:57;4.60;;;1.10;;
60999;SDS011;46879;45.658;11.814;2022-08-21T19:50:09;2.55;;;1.00;;
60999;SDS011;46879;45.658;11.814;2022-08-21T19:55:19;6.38;;;1.42;;
60999;SDS011;46879;45.658;11.814;2022-08-21T20:00:28;2.55;;;1.25;;
60999;SDS011;46879;45.658;11.814;2022-08-21T20:05:37;1.77;;;1.00;;
60999;SDS011;46879;45.658;11.814;2022-08-21T20:10:41;1.90;;;1.13;;
60999;SDS011;46879;45.658;11.814;2022-08-21T20:15:50;1.30;;;0.90;;
60999;SDS011;46879;45.658;11.814;2022-08-21T20:20:59;9.23;;;1.42;;
60999;SDS011;46879;45.658;11.814;2022-08-21T20:26:09;23.13;;;4.22;;
60999;SDS011;46879;45.658;11.814;2022-08-21T20:31:10;6.05;;;1.77;;
60999;SDS011;46879;45.658;11.814;2022-08-21T20:36:11;2.05;;;1.23;;
60999;SDS011;46879;45.658;11.814;2022-08-21T20:41:12;7.60;;;1.50;;
60999;SDS011;46879;45.658;11.814;2022-08-21T20:46:15;6.65;;;1.40;;
60999;SDS011;46879;45.658;11.814;2022-08-21T20:51:25;4.55;;;1.50;;
60999;SDS011;46879;45.658;11.814;2022-08-21T20:56:38;6.65;;;1.42;;
60999;SDS011;46879;45.658;11.814;2022-08-21T21:02:00;5.97;;;1.50;;
60999;SDS011;46879;45.658;11.814;2022-08-21T21:07:46;11.95;;;1.35;;
60999;SDS011;46879;45.658;11.814;2022-08-21T21:13:00;4.72;;;1.00;;
60999;SDS011;46879;45.658;11.814;2022-08-21T21:18:24;3.38;;;1.25;;
60999;SDS011;46879;45.658;11.814;2022-08-21T21:23:44;4.00;;;1.08;;
60999;SDS011;46879;45.658;11.814;2022-08-21T21:34:14;6.22;;;1.17;;
60999;SDS011;46879;45.658;11.814;2022-08-21T21:44:55;4.25;;;0.80;;
60999;SDS011;46879;45.658;11.814;2022-08-21T22:01:40;1.70;;;0.70;;
60999;SDS011;46879;45.658;11.814;2022-08-21T22:07:09;1.50;;;0.73;;
60999;SDS011;46879;45.658;11.814;2022-08-21T22:12:36;1.33;;;0.73;;
60999;SDS011;46879;45.658;11.814;2022-08-21T22:18:12;3.53;;;0.80;;
60999;SDS011;46879;45.658;11.814;2022-08-21T22:23:17;3.33;;;1.02;;
60999;SDS011;46879;45.658;11.814;2022-08-21T22:28:24;8.95;;;1.10;;
60999;SDS011;46879;45.658;11.814;2022-08-21T22:33:27;4.25;;;0.90;;
60999;SDS011;46879;45.658;11.814;2022-08-21T22:38:30;13.77;;;1.25;;
60999;SDS011;46879;45.658;11.814;2022-08-21T22:43:36;10.27;;;1.23;;
60999;SDS011;46879;45.658;11.814;2022-08-21T22:48:53;12.05;;;1.80;;
60999;SDS011;46879;45.658;11.814;2022-08-21T22:54:34;33.80;;;2.53;;
60999;SDS011;46879;45.658;11.814;2022-08-21T23:10:26;16.33;;;1.70;;
60999;SDS011;46879;45.658;11.814;2022-08-21T23:15:47;15.57;;;2.05;;
60999;SDS011;46879;45.658;11.814;2022-08-21T23:21:19;13.43;;;1.75;;
